Herndon, Kansas
Current Conditions -  °F | °C
As of 4:53 PM on Friday 19 Dec 2014 (Local Time) from KMCK Reporting Station
Clear Clear  
Wind Chill: 42°   Ceiling: Unl
Heat Index: 45°   Visibility: 10mi
Dew Point: 25°   Wind: 6mph
Humidity: 46%   Direction: 260°W
Pressure: 30.03"   Gusts: NA
Location:  39.91°N, 100.79°W
Report Text: KMCK 192253Z AUTO 26005KT 10SM CLR 07/M04 A3003 RMK AO2 SLP191 T00721039
Loading
Personal Weather Stations






























Interactive Weather Map New forecast layout! Learn more

10-Day Weather Forecast

Advertisements
Track Severe Weather on mobile